Adams Ranch #1

Dec. 14, 2019, 3 p.m.

  • imperial
Air Temperature RH Wind Speed Wind Direction Precipitation Solar Radiation
Date Time Max Min Mean Max Min Max Mean Mean Total Total
US/Mountain F F F % % MPH MPH deg. in. MJ/m^2
2019-12-13 15:00 58.28 57.56 57.92 23.0 23.0 31.61 20.2 50.0 0.0 1.32
2019-12-13 16:00 57.56 54.86 56.66 25.0 23.0 27.6 16.11 47.0 0.0 0.754
2019-12-13 17:00 54.86 49.46 52.88 29.0 25.0 20.69 12.3 43.0 0.0 0.161
2019-12-13 18:00 49.46 45.32 47.48 37.0 27.0 15.99 9.4 46.0 0.0 0.001
2019-12-13 19:00 45.32 41.36 44.42 44.0 37.0 14.61 7.61 47.0 0.0 0.0
2019-12-13 20:00 42.44 40.28 41.72 47.0 43.0 9.8 5.79 48.0 0.0 0.0
2019-12-13 21:00 41.0 38.3 39.56 51.0 46.0 9.4 5.79 49.0 0.0 0.0
2019-12-13 22:00 41.0 37.04 39.02 53.0 44.0 10.0 5.3 48.0 0.0 0.0
2019-12-13 23:00 41.54 39.2 40.1 51.0 45.0 6.89 4.21 49.0 0.0 0.0
2019-12-14 00:00 47.3 40.28 42.44 59.0 50.0 15.1 6.11 50.0 0.0 0.0
2019-12-14 01:00 48.38 47.3 47.84 53.0 49.0 22.8 14.41 59.0 0.0 0.0
2019-12-14 02:00 47.84 46.22 47.12 51.0 49.0 22.5 14.29 59.0 0.0 0.0
2019-12-14 03:00 46.94 44.42 46.4 53.0 48.0 21.21 12.5 58.0 0.0 0.0
2019-12-14 04:00 47.12 44.42 45.86 53.0 46.0 21.81 11.21 56.0 0.0 0.0
2019-12-14 05:00 46.76 43.88 45.32 51.0 45.0 19.19 9.8 55.0 0.0 0.0
2019-12-14 06:00 46.04 45.68 46.04 46.0 45.0 21.41 12.8 58.0 0.0 0.0
2019-12-14 07:00 45.68 43.88 44.6 50.0 46.0 20.11 10.11 55.0 0.0 0.003
2019-12-14 08:00 49.1 44.96 46.22 48.0 42.0 15.91 11.21 57.0 0.0 0.248
2019-12-14 09:00 53.24 49.1 50.9 42.0 38.0 16.31 8.9 53.0 0.0 0.853
2019-12-14 10:00 55.58 53.24 54.14 38.0 36.0 21.21 11.1 54.0 0.0 1.378
2019-12-14 11:00 57.02 55.22 55.58 38.0 36.0 25.21 14.2 56.0 0.0 1.759
2019-12-14 12:00 58.82 57.02 57.92 37.0 34.0 28.3 14.61 56.0 0.0 1.968
2019-12-14 13:00 59.54 58.46 58.82 34.0 32.0 24.81 14.09 55.0 0.0 1.956
2019-12-14 14:00 59.72 59.0 59.36 33.0 31.0 23.8 14.2 55.0 0.0 1.72
2019-12-14 15:00 60.8 58.64 59.72 31.0 30.0 22.1 13.69 55.0 0.0 1.306

Data is presented as is, with no certification of correctness. DO NOT USE IN LEGAL PROCEEDINGS.